Time;durP1;ratioP1;P1;durP2;ratioP2;P2;SDS_P1;SDS_P2;PMS_P1;PMS_P2;Temp;Humidity;BMP_temperature;BMP_pressure;BME280_temperature;BME280_humidity;BME280_pressure;Samples;Min_cycle;Max_cycle;Signal;HPM_P1;HPM_P2
2023/04/26 00:00:18;;;;;;;21.30;19.75;;;;;;;14.00;45.41;101826.06;5011019;28;20026;-70
2023/04/26 00:02:44;;;;;;;20.95;19.85;;;;;;;13.98;45.22;101831.72;5005882;28;20030;-71
2023/04/26 00:05:09;;;;;;;22.73;21.15;;;;;;;13.96;45.44;101819.44;5005124;28;20476;-69
2023/04/26 00:07:36;;;;;;;20.40;19.00;;;;;;;13.95;45.34;101828.69;5014691;28;20042;-70
2023/04/26 00:10:02;;;;;;;22.95;21.55;;;;;;;13.92;45.27;101827.25;5008546;28;20048;-70
2023/04/26 00:12:27;;;;;;;20.27;19.27;;;;;;;13.91;45.34;101828.34;5013451;28;20450;-70
2023/04/26 00:14:53;;;;;;;22.98;21.67;;;;;;;13.89;45.30;101832.34;5010705;28;20041;-70
2023/04/26 00:17:18;;;;;;;22.10;20.80;;;;;;;13.88;45.25;101838.84;5010419;28;20113;-70
2023/04/26 00:19:44;;;;;;;21.58;20.27;;;;;;;13.85;45.37;101830.09;4997136;28;20030;-72
2023/04/26 00:22:10;;;;;;;22.65;20.90;;;;;;;13.84;45.45;101836.59;5014618;28;20041;-69
2023/04/26 00:24:36;;;;;;;21.50;20.35;;;;;;;13.83;45.38;101831.41;5013520;28;20077;-69
2023/04/26 00:27:07;;;;;;;23.77;22.27;;;;;;;13.81;45.61;101828.13;5014239;28;20041;-69
2023/04/26 00:29:33;;;;;;;21.95;20.70;;;;;;;13.79;45.33;101833.78;4997746;28;20036;-70
2023/04/26 00:31:58;;;;;;;21.92;20.70;;;;;;;13.76;45.22;101836.97;5014556;28;20014;-69
2023/04/26 00:34:24;;;;;;;20.58;19.42;;;;;;;13.75;45.36;101835.31;4994486;28;20478;-71
2023/04/26 00:36:49;;;;;;;21.60;20.35;;;;;;;13.73;45.46;101839.31;5013568;28;20030;-70
2023/04/26 00:39:15;;;;;;;20.90;19.80;;;;;;;13.71;45.30;101834.13;5008660;28;20455;-70
2023/04/26 00:41:40;;;;;;;20.92;19.73;;;;;;;13.70;45.54;101834.38;5004497;28;20058;-69
2023/04/26 00:44:06;;;;;;;21.52;19.88;;;;;;;13.67;45.35;101830.25;5009346;28;20260;-69
2023/04/26 00:46:31;;;;;;;20.83;19.65;;;;;;;13.66;45.28;101830.47;4996434;28;20030;-69
2023/04/26 00:48:57;;;;;;;22.13;20.92;;;;;;;13.65;45.41;101835.06;5010661;28;20030;-71
2023/04/26 00:51:22;;;;;;;20.42;18.98;;;;;;;13.61;45.17;101834.72;5007410;28;20499;-70
2023/04/26 00:53:48;;;;;;;19.42;18.38;;;;;;;13.60;45.34;101834.97;5002641;28;20030;-69
2023/04/26 00:56:15;;;;;;;19.92;18.92;;;;;;;13.58;45.39;101827.06;5010029;28;20065;-70
2023/04/26 00:58:41;;;;;;;20.98;19.88;;;;;;;13.57;45.47;101827.28;4994896;28;20022;-70
2023/04/26 01:01:06;;;;;;;21.75;20.45;;;;;;;13.55;45.29;101826.69;5010582;28;20033;-69
2023/04/26 01:03:32;;;;;;;20.50;19.40;;;;;;;13.54;45.37;101822.34;5008346;28;20076;-69
2023/04/26 01:05:58;;;;;;;23.52;21.55;;;;;;;13.53;45.38;101828.81;5010772;28;20042;-70
2023/04/26 01:08:23;;;;;;;22.67;21.40;;;;;;;13.50;45.09;101830.09;4996205;28;20037;-70
2023/04/26 01:10:49;;;;;;;20.40;19.40;;;;;;;13.49;45.20;101835.78;4995625;28;20029;-73
2023/04/26 01:13:15;;;;;;;21.52;20.35;;;;;;;13.48;45.28;101836.84;5001077;28;20042;-68
2023/04/26 01:15:47;;;;;;;20.27;19.17;;;;;;;13.45;45.36;101835.41;5009615;28;20053;-69
2023/04/26 01:18:13;;;;;;;20.83;19.83;;;;;;;13.44;45.43;101835.66;5005733;28;20116;-68
2023/04/26 01:20:41;;;;;;;20.42;19.27;;;;;;;13.42;45.32;101838.59;4992954;28;20060;-70
2023/04/26 01:23:08;;;;;;;20.17;19.07;;;;;;;13.40;45.30;101838.84;5012926;28;20041;-69
2023/04/26 01:25:33;;;;;;;20.83;19.73;;;;;;;13.39;45.37;101839.91;5012542;28;20342;-69
2023/04/26 01:27:59;;;;;;;19.50;18.40;;;;;;;13.37;45.30;101842.03;5013305;28;20506;-68
2023/04/26 01:30:25;;;;;;;21.35;19.75;;;;;;;13.37;45.27;101841.19;5013691;28;20057;-70
2023/04/26 01:32:50;;;;;;;19.95;18.85;;;;;;;13.34;45.28;101842.50;5012787;28;20373;-68
2023/04/26 01:35:16;;;;;;;20.55;19.13;;;;;;;13.32;45.34;101841.06;4990507;28;20473;-70
2023/04/26 01:37:42;;;;;;;20.95;19.85;;;;;;;13.30;45.27;101835.88;5012333;28;20137;-71
2023/04/26 01:40:08;;;;;;;21.92;20.50;;;;;;;13.28;45.19;101839.88;5008309;28;20061;-70
2023/04/26 01:42:34;;;;;;;19.20;18.20;;;;;;;13.27;45.23;101832.81;5012492;28;20030;-69
2023/04/26 01:44:59;;;;;;;22.23;20.85;;;;;;;13.25;45.32;101834.91;5002674;28;20516;-70
2023/04/26 01:47:25;;;;;;;21.35;20.05;;;;;;;13.24;45.25;101833.25;5001303;28;20034;-71
2023/04/26 01:49:51;;;;;;;20.00;18.80;;;;;;;13.22;45.36;101822.63;4986840;28;20037;-70
2023/04/26 01:52:17;;;;;;;20.23;19.02;;;;;;;13.20;45.42;101824.75;5007091;28;20057;-70
2023/04/26 01:54:42;;;;;;;19.80;18.77;;;;;;;13.18;45.10;101825.00;4983155;28;20084;-70
2023/04/26 01:57:08;;;;;;;23.65;22.23;;;;;;;13.17;45.24;101828.75;5008124;28;20088;-71
2023/04/26 01:59:33;;;;;;;20.45;19.35;;;;;;;13.15;45.32;101824.63;5005076;28;20108;-69
2023/04/26 02:01:59;;;;;;;22.10;20.83;;;;;;;13.14;45.28;101831.94;5009379;28;20026;-69
2023/04/26 02:04:25;;;;;;;21.45;20.13;;;;;;;13.11;45.25;101835.13;5001000;28;20369;-70
2023/04/26 02:06:50;;;;;;;18.58;17.60;;;;;;;13.11;45.12;101834.28;5010903;28;20046;-70
2023/04/26 02:09:17;;;;;;;21.55;20.42;;;;;;;13.08;45.17;101830.16;4989668;28;20440;-70
2023/04/26 02:11:42;;;;;;;18.80;17.70;;;;;;;13.06;45.42;101835.00;5005707;28;20038;-71
2023/04/26 02:14:07;;;;;;;21.10;19.80;;;;;;;13.05;45.22;101835.22;4994111;28;20060;-69
2023/04/26 02:16:33;;;;;;;20.25;19.05;;;;;;;13.04;45.31;101831.69;5009457;28;20033;-69
2023/04/26 02:18:58;;;;;;;20.45;19.17;;;;;;;13.01;45.40;101834.03;5002033;28;20057;-70
2023/04/26 02:21:24;;;;;;;19.02;18.00;;;;;;;13.00;45.25;101841.31;4994738;28;20034;-71
2023/04/26 02:23:49;;;;;;;18.98;17.98;;;;;;;12.97;45.16;101829.06;5011376;28;20129;-69
2023/04/26 02:26:15;;;;;;;20.17;19.05;;;;;;;12.95;45.09;101827.63;5007661;28;20034;-69
2023/04/26 02:28:43;;;;;;;18.60;17.52;;;;;;;12.94;45.40;101823.28;4978556;28;20042;-70
2023/04/26 02:31:09;;;;;;;19.30;18.02;;;;;;;12.93;45.40;101825.19;4993147;28;20030;-68
2023/04/26 02:33:35;;;;;;;22.15;20.55;;;;;;;12.91;45.39;101830.00;4990105;28;20037;-70
2023/04/26 02:36:05;;;;;;;20.23;18.92;;;;;;;12.89;45.28;101825.88;4992966;28;20036;-69
2023/04/26 02:38:32;;;;;;;19.35;18.23;;;;;;;12.88;45.44;101824.22;4995389;28;20073;-69
2023/04/26 02:40:59;;;;;;;18.85;17.75;;;;;;;12.87;44.98;101822.56;4993965;28;20032;-70
2023/04/26 02:43:25;;;;;;;18.45;17.45;;;;;;;12.84;45.01;101826.56;5010546;28;20085;-71
2023/04/26 02:45:51;;;;;;;20.05;18.95;;;;;;;12.83;45.46;101818.66;5002713;28;20030;-70
2023/04/26 02:48:16;;;;;;;19.88;18.88;;;;;;;12.81;45.19;101815.34;5005421;28;20386;-70
2023/04/26 02:50:41;;;;;;;19.05;18.02;;;;;;;12.79;45.17;101821.00;5011715;28;20026;-70
2023/04/26 02:53:07;;;;;;;19.95;18.50;;;;;;;12.77;45.11;101817.69;5011390;28;20025;-69
2023/04/26 02:55:32;;;;;;;19.30;18.02;;;;;;;12.74;45.24;101818.97;5010794;28;20040;-70
2023/04/26 02:57:58;;;;;;;17.98;16.98;;;;;;;12.73;45.30;101814.63;5000602;28;20030;-69
2023/04/26 03:00:23;;;;;;;18.58;17.58;;;;;;;12.72;45.39;101814.84;5001288;28;20084;-69
2023/04/26 03:02:49;;;;;;;21.08;19.83;;;;;;;12.70;45.37;101814.25;5010632;28;20045;-70
2023/04/26 03:05:15;;;;;;;21.83;20.52;;;;;;;12.68;45.25;101813.66;5009714;28;20056;-68
2023/04/26 03:07:40;;;;;;;19.20;17.95;;;;;;;12.67;45.19;101809.28;4995091;28;20105;-70
2023/04/26 03:10:07;;;;;;;20.10;18.90;;;;;;;12.64;45.21;101807.84;5004130;28;20104;-70
2023/04/26 03:12:32;;;;;;;18.90;17.90;;;;;;;12.63;45.17;101814.34;4993324;28;20065;-70
2023/04/26 03:14:58;;;;;;;19.88;18.77;;;;;;;12.62;45.28;101806.44;5008266;28;20076;-70
2023/04/26 03:17:23;;;;;;;18.20;17.20;;;;;;;12.60;45.14;101809.41;5008911;28;20034;-70
2023/04/26 03:19:49;;;;;;;19.77;18.67;;;;;;;12.59;44.98;101806.91;5006945;28;20445;-70
2023/04/26 03:22:15;;;;;;;19.23;18.08;;;;;;;12.57;45.19;101812.53;4997088;28;20068;-69
2023/04/26 03:24:43;;;;;;;19.15;18.15;;;;;;;12.55;45.27;101809.25;4995929;28;20082;-69
2023/04/26 03:27:09;;;;;;;18.75;17.55;;;;;;;12.53;45.30;101814.91;5001468;28;20125;-69
2023/04/26 03:29:34;;;;;;;18.58;17.48;;;;;;;12.52;45.21;101809.69;4982232;28;20440;-69
2023/04/26 03:32:00;;;;;;;18.42;17.25;;;;;;;12.50;45.17;101814.53;5003688;28;20030;-71
2023/04/26 03:34:26;;;;;;;18.67;17.58;;;;;;;12.48;45.23;101803.91;4993768;28;20037;-68
2023/04/26 03:36:51;;;;;;;20.85;19.65;;;;;;;12.47;45.20;101801.44;5009905;28;20057;-70
2023/04/26 03:39:17;;;;;;;20.55;19.33;;;;;;;12.45;45.25;101800.84;4996035;28;20033;-70
2023/04/26 03:41:42;;;;;;;17.67;16.73;;;;;;;12.44;45.19;101796.47;5003114;28;20392;-70
2023/04/26 03:44:07;;;;;;;19.60;18.45;;;;;;;12.42;45.17;101798.56;4993375;28;20041;-69
2023/04/26 03:46:33;;;;;;;17.92;16.92;;;;;;;12.40;45.37;101796.13;5010973;28;20030;-70
2023/04/26 03:48:58;;;;;;;17.42;16.48;;;;;;;12.39;45.07;101804.47;5002961;28;20053;-70
2023/04/26 03:51:24;;;;;;;18.95;17.65;;;;;;;12.37;45.20;101809.28;4978770;28;20026;-71
2023/04/26 03:53:49;;;;;;;18.23;17.13;;;;;;;12.35;45.29;101806.81;5005010;28;20037;-70
2023/04/26 03:56:15;;;;;;;20.25;18.70;;;;;;;12.34;45.25;101802.44;4992695;28;20117;-70
2023/04/26 03:58:41;;;;;;;18.67;17.67;;;;;;;12.33;45.08;101803.50;5009234;28;20041;-71
2023/04/26 04:01:07;;;;;;;20.67;19.38;;;;;;;12.30;45.17;101798.53;5004853;28;20034;-71
2023/04/26 04:03:33;;;;;;;18.25;17.20;;;;;;;12.29;45.13;101796.88;4999858;28;20030;-70
2023/04/26 04:05:58;;;;;;;18.40;17.40;;;;;;;12.27;45.22;101798.97;4992703;28;20053;-71
2023/04/26 04:08:23;;;;;;;18.90;17.90;;;;;;;12.25;45.20;101804.66;5010112;28;20025;-69
2023/04/26 04:10:49;;;;;;;18.33;17.33;;;;;;;12.24;45.32;101791.31;5002515;28;20030;-70
2023/04/26 04:13:15;;;;;;;19.30;18.20;;;;;;;12.22;45.07;101794.28;5002932;28;20081;-69
2023/04/26 04:15:40;;;;;;;17.10;16.20;;;;;;;12.21;45.30;101795.31;4990449;28;20169;-70
2023/04/26 04:18:05;;;;;;;18.60;17.48;;;;;;;12.19;45.21;101794.69;5003322;28;20028;-70
2023/04/26 04:20:31;;;;;;;17.38;16.40;;;;;;;12.19;45.12;101796.59;5008813;28;20041;-69
2023/04/26 04:22:57;;;;;;;18.13;17.13;;;;;;;12.17;45.22;101798.69;4989845;28;20041;-69
2023/04/26 04:25:24;;;;;;;19.15;17.95;;;;;;;12.15;45.09;101803.53;5006100;28;20450;-69
2023/04/26 04:27:50;;;;;;;17.83;16.92;;;;;;;12.13;45.32;101801.84;5006858;28;20121;-70
2023/04/26 04:30:16;;;;;;;19.85;18.65;;;;;;;12.13;45.18;101815.41;5004229;28;20026;-70
2023/04/26 04:32:45;;;;;;;17.60;16.40;;;;;;;12.10;45.10;101818.56;4993275;28;20033;-69
2023/04/26 04:35:12;;;;;;;19.77;18.40;;;;;;;12.09;45.28;101819.59;5000454;28;20040;-70
2023/04/26 04:37:37;;;;;;;17.60;16.63;;;;;;;12.07;45.35;101824.44;5004914;28;20034;-70
2023/04/26 04:40:03;;;;;;;18.85;17.75;;;;;;;12.07;45.06;101818.19;4992444;28;20036;-69
2023/04/26 04:42:29;;;;;;;18.52;17.35;;;;;;;12.05;45.26;101825.72;5002986;28;20466;-69
2023/04/26 04:44:55;;;;;;;18.20;17.20;;;;;;;12.03;45.26;101817.81;5009166;28;20171;-69
2023/04/26 04:47:21;;;;;;;20.23;18.88;;;;;;;12.02;45.16;101824.31;4999325;28;20026;-69
2023/04/26 04:49:46;;;;;;;19.70;18.50;;;;;;;12.02;45.24;101820.75;4997462;28;20084;-70
2023/04/26 04:52:12;;;;;;;19.90;18.60;;;;;;;12.01;45.29;101824.50;5014268;28;20042;-71
2023/04/26 04:54:37;;;;;;;16.75;15.85;;;;;;;11.99;45.08;101824.72;5014337;28;20022;-70
2023/04/26 04:57:03;;;;;;;17.13;16.15;;;;;;;11.98;45.25;101814.13;5012942;28;20040;-70
2023/04/26 04:59:28;;;;;;;19.58;18.48;;;;;;;11.96;45.38;101822.47;5010490;28;20030;-73
2023/04/26 05:01:54;;;;;;;17.83;16.83;;;;;;;11.96;45.20;101827.88;5013356;28;20465;-72
2023/04/26 05:04:20;;;;;;;20.92;19.42;;;;;;;11.94;45.30;101813.75;4996040;28;20026;-71
2023/04/26 05:06:46;;;;;;;18.80;17.70;;;;;;;11.94;45.28;101819.16;4999963;28;20054;-72
2023/04/26 05:09:11;;;;;;;20.13;18.88;;;;;;;11.93;45.19;101814.00;5009320;28;20033;-69
2023/04/26 05:11:36;;;;;;;18.90;17.73;;;;;;;11.91;45.24;101815.03;5009630;28;20485;-71
2023/04/26 05:14:02;;;;;;;18.02;16.98;;;;;;;11.90;45.34;101829.63;5013824;28;20380;-69
2023/04/26 05:16:27;;;;;;;20.67;19.20;;;;;;;11.90;45.26;101826.09;5009659;28;20125;-70
2023/04/26 05:18:53;;;;;;;18.40;17.20;;;;;;;11.88;45.37;101825.50;5013788;28;20038;-69
2023/04/26 05:21:18;;;;;;;20.30;18.80;;;;;;;11.87;45.42;101823.84;5013418;28;20105;-71
2023/04/26 05:23:43;;;;;;;19.70;17.83;;;;;;;11.87;45.34;101824.66;5011065;28;20121;-71
2023/04/26 05:26:14;;;;;;;18.17;17.05;;;;;;;11.87;45.51;101826.56;5014016;28;20343;-70
2023/04/26 05:28:39;;;;;;;16.65;15.65;;;;;;;11.85;45.20;101825.91;5002258;28;20084;-71
2023/04/26 05:31:04;;;;;;;17.23;16.25;;;;;;;11.84;45.33;101825.09;4999231;28;20491;-72
2023/04/26 05:33:30;;;;;;;19.10;17.58;;;;;;;11.83;45.38;101826.13;5011120;28;20034;-70
2023/04/26 05:35:56;;;;;;;21.63;20.10;;;;;;;11.83;45.31;101830.72;4999693;28;20054;-72
2023/04/26 05:38:22;;;;;;;19.88;18.55;;;;;;;11.82;45.34;101818.25;5004833;28;20033;-70
2023/04/26 05:40:48;;;;;;;19.30;18.05;;;;;;;11.80;45.40;101818.47;5010329;28;20109;-70
2023/04/26 05:43:13;;;;;;;19.25;18.10;;;;;;;11.80;45.47;101825.75;5000808;28;20113;-73
2023/04/26 05:45:39;;;;;;;19.77;18.48;;;;;;;11.79;45.34;101830.34;5005592;28;20038;-70
2023/04/26 05:48:05;;;;;;;18.15;16.95;;;;;;;11.79;45.43;101827.66;5009930;28;20030;-70
2023/04/26 05:50:30;;;;;;;19.27;17.98;;;;;;;11.79;45.41;101830.34;5006873;28;20497;-71
2023/04/26 05:52:56;;;;;;;18.85;17.70;;;;;;;11.78;45.37;101833.28;5011757;28;20026;-71
2023/04/26 05:55:21;;;;;;;19.40;18.10;;;;;;;11.77;45.49;101829.75;5004566;28;20038;-71
2023/04/26 05:57:47;;;;;;;18.60;17.50;;;;;;;11.77;45.36;101832.44;5007126;28;20108;-73
2023/04/26 06:00:14;;;;;;;19.55;18.15;;;;;;;11.77;45.41;101832.44;5007833;28;20496;-72
2023/04/26 06:02:40;;;;;;;18.98;17.58;;;;;;;11.76;45.47;101838.91;4994143;28;20033;-71
2023/04/26 06:05:06;;;;;;;18.67;17.38;;;;;;;11.77;45.35;101837.00;5008642;28;20030;-70
2023/04/26 06:07:31;;;;;;;19.20;17.90;;;;;;;11.75;45.24;101841.84;5012713;28;20453;-70
2023/04/26 06:09:59;;;;;;;18.73;17.13;;;;;;;11.76;45.43;101843.47;5006384;28;20100;-70
2023/04/26 06:12:25;;;;;;;20.30;18.50;;;;;;;11.76;45.66;101843.47;4993955;28;20096;-70
2023/04/26 06:14:50;;;;;;;18.33;17.02;;;;;;;11.76;45.40;101851.59;5012110;28;20502;-71
2023/04/26 06:17:15;;;;;;;20.17;18.77;;;;;;;11.75;45.59;101848.06;4994286;28;20034;-71
2023/04/26 06:19:41;;;;;;;18.55;17.33;;;;;;;11.76;45.21;101851.59;4978691;28;20053;-73
2023/04/26 06:22:06;;;;;;;18.75;17.45;;;;;;;11.76;45.36;101859.72;5004280;28;20121;-71
2023/04/26 06:24:32;;;;;;;20.65;19.05;;;;;;;11.75;45.58;101861.63;4996959;28;20109;-70
2023/04/26 06:26:57;;;;;;;19.30;17.65;;;;;;;11.75;45.32;101868.91;4981007;28;20389;-72
2023/04/26 06:29:22;;;;;;;20.83;19.27;;;;;;;11.75;45.52;101864.31;4978561;28;20046;-74
2023/04/26 06:31:48;;;;;;;20.27;18.83;;;;;;;11.75;45.49;101861.63;4988468;28;20041;-71
2023/04/26 06:34:13;;;;;;;20.33;18.45;;;;;;;11.76;45.42;101871.38;5003674;28;20484;-71
2023/04/26 06:36:39;;;;;;;16.92;15.93;;;;;;;11.76;45.53;101867.84;4979308;28;20042;-73
2023/04/26 06:39:05;;;;;;;20.80;19.23;;;;;;;11.76;45.57;101870.56;4987521;28;20041;-72
2023/04/26 06:41:30;;;;;;;21.70;19.95;;;;;;;11.75;45.51;101869.72;4996286;28;20109;-73
2023/04/26 06:43:55;;;;;;;19.75;18.10;;;;;;;11.76;45.30;101865.16;4980301;28;21557;-72
2023/04/26 06:46:21;;;;;;;18.83;17.48;;;;;;;11.76;45.65;101871.38;4999327;28;20450;-71
2023/04/26 06:48:46;;;;;;;18.25;17.15;;;;;;;11.76;45.55;101871.38;4994296;28;20026;-72
2023/04/26 06:51:12;;;;;;;19.25;17.95;;;;;;;11.77;45.66;101872.19;4998794;28;20030;-74
2023/04/26 06:53:38;;;;;;;19.77;18.15;;;;;;;11.77;45.71;101861.38;4999296;28;20032;-75
2023/04/26 06:56:03;;;;;;;18.98;17.80;;;;;;;11.78;45.65;101865.75;5000572;28;20042;-73
2023/04/26 06:58:29;;;;;;;19.33;17.98;;;;;;;11.76;45.49;101863.25;4998536;28;20099;-73
2023/04/26 07:00:54;;;;;;;18.58;17.30;;;;;;;11.78;45.81;101863.03;4963127;28;20117;-77
2023/04/26 07:03:20;;;;;;;20.75;18.38;;;;;;;11.78;45.72;101863.03;4982316;28;20473;-71
2023/04/26 07:05:45;;;;;;;19.90;18.50;;;;;;;11.79;45.70;101876.38;5001332;28;20050;-72
2023/04/26 07:08:11;;;;;;;17.60;16.55;;;;;;;11.80;45.64;101874.47;4997500;28;20113;-72
2023/04/26 07:10:38;;;;;;;20.17;18.42;;;;;;;11.79;45.88;101870.97;5002402;28;20087;-73
2023/04/26 07:13:04;;;;;;;18.75;17.45;;;;;;;11.80;45.79;101878.00;4994617;28;20059;-75
2023/04/26 07:15:30;;;;;;;22.02;20.42;;;;;;;11.81;45.81;101871.53;4973170;28;20026;-72
2023/04/26 07:17:55;;;;;;;19.27;17.65;;;;;;;11.82;45.69;101869.69;4991678;28;20038;-76
2023/04/26 07:20:21;;;;;;;19.00;17.63;;;;;;;11.83;45.89;101868.63;4998629;28;20393;-74
2023/04/26 07:22:47;;;;;;;17.52;16.15;;;;;;;11.83;45.73;101864.03;4976337;28;20030;-73
2023/04/26 07:25:12;;;;;;;19.85;18.35;;;;;;;11.85;45.97;101866.53;4989942;28;20030;-71
2023/04/26 07:27:38;;;;;;;21.02;19.25;;;;;;;11.86;45.60;101860.03;4990246;28;20053;-71
2023/04/26 07:30:04;;;;;;;18.25;16.90;;;;;;;11.86;45.93;101860.03;4995681;28;20034;-75
2023/04/26 07:32:30;;;;;;;23.20;21.40;;;;;;;11.88;45.58;101858.78;5006373;28;20038;-73
2023/04/26 07:34:56;;;;;;;19.52;18.02;;;;;;;11.89;45.85;101865.03;4998747;28;20038;-71
2023/04/26 07:37:21;;;;;;;19.95;18.23;;;;;;;11.91;45.78;101857.53;5000252;28;20093;-72
2023/04/26 07:39:47;;;;;;;19.45;18.23;;;;;;;11.93;45.66;101858.13;4998970;28;20035;-71
2023/04/26 07:42:13;;;;;;;19.10;17.80;;;;;;;11.94;45.96;101851.66;4974270;28;20042;-71
2023/04/26 07:44:38;;;;;;;22.05;20.08;;;;;;;11.95;45.96;101863.34;4992780;28;20618;-71
2023/04/26 07:47:03;;;;;;;19.10;17.80;;;;;;;11.97;45.89;101862.06;4989357;28;20046;-76
2023/04/26 07:49:29;;;;;;;20.42;18.83;;;;;;;11.99;45.78;101864.53;4995737;28;20053;-73
2023/04/26 07:51:56;;;;;;;20.88;18.98;;;;;;;11.99;45.84;101870.75;4965093;28;20038;-73
2023/04/26 07:54:22;;;;;;;20.35;18.95;;;;;;;12.02;45.85;101874.91;5001693;28;20466;-74
2023/04/26 07:56:47;;;;;;;20.90;19.45;;;;;;;12.03;45.91;101877.41;4990717;28;20039;-75
2023/04/26 07:59:13;;;;;;;18.58;17.30;;;;;;;12.04;46.08;101872.81;4993583;28;20494;-72
2023/04/26 08:01:38;;;;;;;21.15;19.65;;;;;;;12.04;46.06;101880.91;4997715;28;20545;-76
2023/04/26 08:04:04;;;;;;;19.90;18.50;;;;;;;12.02;46.04;101869.47;4981624;28;20042;-75
2023/04/26 08:06:30;;;;;;;19.42;17.90;;;;;;;12.02;46.15;101881.16;5002282;28;20050;-74
2023/04/26 08:08:55;;;;;;;19.13;17.77;;;;;;;12.02;46.11;101885.72;4999478;28;20032;-73
2023/04/26 08:11:21;;;;;;;19.23;17.75;;;;;;;12.02;46.30;101886.59;5002399;28;20114;-70
2023/04/26 08:13:47;;;;;;;19.38;18.00;;;;;;;12.02;46.30;101880.31;4993913;28;20040;-73
2023/04/26 08:16:12;;;;;;;21.08;19.63;;;;;;;12.04;46.22;101878.22;4990365;28;20042;-70
2023/04/26 08:18:38;;;;;;;20.73;19.40;;;;;;;12.04;46.35;101876.31;4989222;28;20476;-73
2023/04/26 08:21:03;;;;;;;18.77;17.50;;;;;;;12.06;46.26;101874.22;4995533;28;20034;-72
2023/04/26 08:23:34;;;;;;;21.00;19.25;;;;;;;12.08;46.24;101874.84;4992856;28;20108;-73
2023/04/26 08:26:00;;;;;;;18.67;17.55;;;;;;;12.11;46.44;101873.56;5008179;28;20034;-74
2023/04/26 08:28:25;;;;;;;18.02;16.92;;;;;;;12.13;46.62;101871.47;4980504;28;20040;-70
2023/04/26 08:30:51;;;;;;;19.42;18.27;;;;;;;12.15;46.37;101873.97;5003199;28;20068;-71
2023/04/26 08:33:17;;;;;;;21.17;19.67;;;;;;;12.17;46.33;101885.38;5004148;28;20065;-70
2023/04/26 08:35:42;;;;;;;20.80;19.40;;;;;;;12.18;46.31;101873.50;4994981;28;20034;-72
2023/04/26 08:38:07;;;;;;;21.23;19.90;;;;;;;12.20;46.40;101868.69;4983408;28;20057;-76
2023/04/26 08:40:35;;;;;;;20.88;19.48;;;;;;;12.21;46.39;101873.84;5002868;28;20493;-71
2023/04/26 08:43:00;;;;;;;19.50;18.15;;;;;;;12.23;46.49;101876.34;5005977;28;20038;-72
2023/04/26 08:45:25;;;;;;;18.17;17.08;;;;;;;12.26;46.25;101870.47;4998039;28;20061;-72
2023/04/26 08:48:04;;;;;;;20.17;18.88;;;;;;;12.27;46.50;101874.84;5001838;28;20500;-71
2023/04/26 08:50:30;;;;;;;20.58;19.27;;;;;;;12.28;46.48;101871.91;4991405;28;20028;-72
2023/04/26 08:52:55;;;;;;;19.83;18.50;;;;;;;12.30;46.48;101869.81;5006453;28;20034;-72
2023/04/26 08:55:22;;;;;;;17.45;16.42;;;;;;;12.33;46.51;101866.63;4989758;28;20096;-72
2023/04/26 08:57:48;;;;;;;20.27;18.88;;;;;;;12.35;46.50;101863.72;4999376;28;20188;-75
2023/04/26 09:00:15;;;;;;;18.30;17.20;;;;;;;12.37;46.49;101860.75;4990793;28;20029;-72
2023/04/26 09:02:51;;;;;;;21.75;20.25;;;;;;;12.38;46.58;101855.13;4999588;28;20061;-73
2023/04/26 09:05:22;;;;;;;19.05;17.70;;;;;;;12.40;46.39;101863.00;5009553;28;20339;-71
2023/04/26 09:07:48;;;;;;;19.60;18.48;;;;;;;12.41;46.61;101851.13;4976932;28;20031;-75
2023/04/26 09:10:21;;;;;;;20.40;19.00;;;;;;;12.43;46.71;101849.84;4991271;28;20038;-70
2023/04/26 09:12:53;;;;;;;20.35;18.98;;;;;;;12.45;46.75;101846.91;4997810;28;20473;-70
2023/04/26 09:15:23;;;;;;;18.05;17.02;;;;;;;12.46;46.63;101846.69;5002316;28;20041;-73
2023/04/26 09:17:50;;;;;;;18.70;17.60;;;;;;;12.48;46.64;101852.69;4980191;28;20434;-72
2023/04/26 09:20:30;;;;;;;19.63;18.33;;;;;;;12.51;46.54;101857.66;4991071;28;20035;-70
2023/04/26 09:23:09;;;;;;;19.58;18.35;;;;;;;12.52;46.51;101856.63;4988608;28;20044;-70
2023/04/26 09:25:35;;;;;;;20.55;18.52;;;;;;;12.54;46.44;101859.09;4996248;28;20034;-69
2023/04/26 09:28:02;;;;;;;20.67;19.27;;;;;;;12.58;46.62;101856.75;4994575;28;20034;-73
2023/04/26 09:30:29;;;;;;;20.45;19.15;;;;;;;12.60;46.59;101857.34;4990131;28;20030;-70
2023/04/26 09:33:02;;;;;;;19.05;17.95;;;;;;;12.62;46.58;101861.47;4960939;28;20086;-72
2023/04/26 09:35:30;;;;;;;20.90;19.65;;;;;;;12.64;46.63;101862.06;5004614;28;20053;-72
2023/04/26 09:38:13;;;;;;;19.85;18.63;;;;;;;12.65;46.79;101860.19;4990704;28;20034;-72
2023/04/26 09:40:46;;;;;;;20.55;19.25;;;;;;;12.68;46.81;101865.16;4995967;28;20037;-75
2023/04/26 09:43:15;;;;;;;21.48;20.08;;;;;;;12.69;46.99;101870.34;4993389;28;20477;-72
2023/04/26 09:45:51;;;;;;;22.02;20.45;;;;;;;12.71;46.91;101862.00;5003546;28;20038;-70
2023/04/26 09:48:20;;;;;;;21.30;19.77;;;;;;;12.73;46.87;101860.72;4988661;28;20175;-68
2023/04/26 09:50:45;;;;;;;23.08;21.20;;;;;;;12.75;46.90;101857.75;4992424;28;20023;-70
2023/04/26 09:53:44;;;;;;;19.77;18.67;;;;;;;12.77;46.89;101871.91;5002366;28;20033;-68
2023/04/26 09:56:10;;;;;;;19.38;18.17;;;;;;;12.81;46.91;101866.88;5004789;28;20413;-68
2023/04/26 09:58:38;;;;;;;21.52;20.10;;;;;;;12.83;47.10;101865.59;5005065;28;20030;-70
2023/04/26 10:01:04;;;;;;;21.63;20.35;;;;;;;12.86;46.87;101870.53;5000431;28;20046;-71
2023/04/26 10:03:32;;;;;;;19.35;18.20;;;;;;;12.89;46.83;101874.69;4984858;28;20038;-68
2023/04/26 10:05:57;;;;;;;19.90;18.80;;;;;;;12.92;47.10;101860.66;4983679;28;20070;-71
2023/04/26 10:08:23;;;;;;;20.73;19.45;;;;;;;12.94;47.04;101863.97;4996752;28;20080;-70
2023/04/26 10:10:48;;;;;;;21.42;19.95;;;;;;;12.98;47.09;101865.16;4990300;28;20062;-69
2023/04/26 10:13:15;;;;;;;22.10;20.45;;;;;;;12.98;47.03;101865.16;4994688;28;20030;-69
2023/04/26 10:15:41;;;;;;;20.52;19.23;;;;;;;13.02;46.94;101871.75;4995830;28;20034;-69
2023/04/26 10:18:07;;;;;;;23.65;21.95;;;;;;;13.04;46.90;101860.69;4994772;28;20085;-70
2023/04/26 10:20:35;;;;;;;19.58;18.50;;;;;;;13.05;46.90;101867.75;4991081;28;20040;-69
2023/04/26 10:23:02;;;;;;;21.05;19.85;;;;;;;13.08;47.08;101857.28;4984246;28;20477;-69
2023/04/26 10:25:38;;;;;;;22.33;20.23;;;;;;;13.10;47.22;101855.19;4989532;28;20405;-69
2023/04/26 10:28:04;;;;;;;21.10;19.73;;;;;;;13.12;47.19;101866.59;4998898;28;20070;-69
2023/04/26 10:30:31;;;;;;;20.23;18.98;;;;;;;13.13;46.95;101854.72;5000440;28;20119;-69
2023/04/26 10:32:56;;;;;;;21.33;19.73;;;;;;;13.17;47.12;101855.06;4988691;28;20026;-68
2023/04/26 10:35:26;;;;;;;19.98;18.88;;;;;;;13.18;46.96;101852.13;4989306;28;20037;-70
2023/04/26 10:38:00;;;;;;;20.73;19.38;;;;;;;13.20;47.34;101843.72;4999912;28;20030;-69
2023/04/26 10:40:32;;;;;;;22.05;20.65;;;;;;;13.23;47.08;101850.56;4991192;28;20030;-68
2023/04/26 10:43:10;;;;;;;19.17;18.13;;;;;;;13.24;47.33;101853.06;4987288;28;20046;-70
2023/04/26 10:45:37;;;;;;;21.25;19.45;;;;;;;13.26;47.51;101850.97;4991508;28;20042;-70
2023/04/26 10:48:19;;;;;;;20.23;19.08;;;;;;;13.29;47.38;101852.41;4988107;28;20034;-70
2023/04/26 10:51:10;;;;;;;23.00;21.08;;;;;;;13.31;47.43;101851.13;4995882;28;20042;-68
2023/04/26 10:53:45;;;;;;;21.33;19.65;;;;;;;13.33;47.18;101842.72;4989138;28;20451;-71
2023/04/26 10:56:23;;;;;;;22.40;20.90;;;;;;;13.36;47.41;101845.00;4992495;28;20042;-70
2023/04/26 10:59:05;;;;;;;23.20;21.75;;;;;;;13.39;47.50;101841.81;4995276;28;20034;-70
2023/04/26 11:01:31;;;;;;;22.17;20.40;;;;;;;13.42;47.36;101836.72;4989276;28;20474;-68
2023/04/26 11:03:56;;;;;;;21.73;20.33;;;;;;;13.46;47.66;101838.97;4993021;28;20048;-71
2023/04/26 11:06:25;;;;;;;22.05;20.52;;;;;;;13.48;47.44;101837.69;4992320;28;20089;-69